sensor_id;sensor_type;location;lat;lon;timestamp;temperature;humidity
20167;DHT22;10243;49.118;8.508;2022-07-06T00:01:16;21.20;76.20
20167;DHT22;10243;49.118;8.508;2022-07-06T00:04:18;21.00;76.40
20167;DHT22;10243;49.118;8.508;2022-07-06T00:07:22;21.00;76.70
20167;DHT22;10243;49.118;8.508;2022-07-06T00:10:24;21.00;77.00
20167;DHT22;10243;49.118;8.508;2022-07-06T00:13:26;21.00;77.20
20167;DHT22;10243;49.118;8.508;2022-07-06T00:16:28;21.00;77.20
20167;DHT22;10243;49.118;8.508;2022-07-06T00:19:30;20.90;77.70
20167;DHT22;10243;49.118;8.508;2022-07-06T00:22:34;20.90;77.70
20167;DHT22;10243;49.118;8.508;2022-07-06T00:25:35;21.00;78.00
20167;DHT22;10243;49.118;8.508;2022-07-06T00:28:37;20.80;77.80
20167;DHT22;10243;49.118;8.508;2022-07-06T00:31:39;20.80;78.30
20167;DHT22;10243;49.118;8.508;2022-07-06T00:34:41;20.90;78.30
20167;DHT22;10243;49.118;8.508;2022-07-06T00:37:45;20.90;78.60
20167;DHT22;10243;49.118;8.508;2022-07-06T00:40:47;20.80;78.80
20167;DHT22;10243;49.118;8.508;2022-07-06T00:43:51;20.70;79.30
20167;DHT22;10243;49.118;8.508;2022-07-06T00:46:55;20.80;79.40
20167;DHT22;10243;49.118;8.508;2022-07-06T00:49:57;20.70;79.60
20167;DHT22;10243;49.118;8.508;2022-07-06T00:53:20;20.70;80.00
20167;DHT22;10243;49.118;8.508;2022-07-06T00:56:22;20.70;79.90
20167;DHT22;10243;49.118;8.508;2022-07-06T00:59:24;20.50;80.50
20167;DHT22;10243;49.118;8.508;2022-07-06T01:02:27;20.40;80.80
20167;DHT22;10243;49.118;8.508;2022-07-06T01:05:31;20.40;80.90
20167;DHT22;10243;49.118;8.508;2022-07-06T01:08:35;20.50;81.20
20167;DHT22;10243;49.118;8.508;2022-07-06T01:11:37;20.50;81.30
20167;DHT22;10243;49.118;8.508;2022-07-06T01:14:39;20.40;81.40
20167;DHT22;10243;49.118;8.508;2022-07-06T01:17:42;20.30;81.90
20167;DHT22;10243;49.118;8.508;2022-07-06T01:20:46;20.30;82.20
20167;DHT22;10243;49.118;8.508;2022-07-06T01:23:48;20.30;82.20
20167;DHT22;10243;49.118;8.508;2022-07-06T01:26:50;20.20;82.60
20167;DHT22;10243;49.118;8.508;2022-07-06T01:29:52;20.20;82.80
20167;DHT22;10243;49.118;8.508;2022-07-06T01:32:54;20.10;83.10
20167;DHT22;10243;49.118;8.508;2022-07-06T01:35:57;20.00;83.20
20167;DHT22;10243;49.118;8.508;2022-07-06T01:38:59;20.00;83.70
20167;DHT22;10243;49.118;8.508;2022-07-06T01:42:01;20.00;83.60
20167;DHT22;10243;49.118;8.508;2022-07-06T01:45:04;20.10;83.70
20167;DHT22;10243;49.118;8.508;2022-07-06T01:48:07;19.90;84.20
20167;DHT22;10243;49.118;8.508;2022-07-06T01:51:11;19.90;84.30
20167;DHT22;10243;49.118;8.508;2022-07-06T01:54:13;19.90;84.20
20167;DHT22;10243;49.118;8.508;2022-07-06T01:57:16;19.70;84.80
20167;DHT22;10243;49.118;8.508;2022-07-06T02:00:18;19.80;84.80
20167;DHT22;10243;49.118;8.508;2022-07-06T02:03:24;19.80;84.90
20167;DHT22;10243;49.118;8.508;2022-07-06T02:06:27;19.90;85.00
20167;DHT22;10243;49.118;8.508;2022-07-06T02:09:29;19.90;84.90
20167;DHT22;10243;49.118;8.508;2022-07-06T02:12:31;20.00;84.30
20167;DHT22;10243;49.118;8.508;2022-07-06T02:15:33;19.90;84.60
20167;DHT22;10243;49.118;8.508;2022-07-06T02:18:35;19.90;85.00
20167;DHT22;10243;49.118;8.508;2022-07-06T02:21:38;19.90;84.80
20167;DHT22;10243;49.118;8.508;2022-07-06T02:24:40;19.90;85.10
20167;DHT22;10243;49.118;8.508;2022-07-06T02:27:42;19.90;84.90
20167;DHT22;10243;49.118;8.508;2022-07-06T02:30:45;19.90;85.10
20167;DHT22;10243;49.118;8.508;2022-07-06T02:33:47;19.90;85.10
20167;DHT22;10243;49.118;8.508;2022-07-06T02:36:51;19.80;85.40
20167;DHT22;10243;49.118;8.508;2022-07-06T02:39:54;19.80;86.10
20167;DHT22;10243;49.118;8.508;2022-07-06T02:42:56;19.70;85.50
20167;DHT22;10243;49.118;8.508;2022-07-06T02:45:58;19.70;85.70
20167;DHT22;10243;49.118;8.508;2022-07-06T02:49:02;19.70;85.80
20167;DHT22;10243;49.118;8.508;2022-07-06T02:52:05;19.50;86.30
20167;DHT22;10243;49.118;8.508;2022-07-06T02:55:08;19.30;86.90
20167;DHT22;10243;49.118;8.508;2022-07-06T02:58:10;19.30;87.40
20167;DHT22;10243;49.118;8.508;2022-07-06T03:01:12;19.20;87.50
20167;DHT22;10243;49.118;8.508;2022-07-06T03:04:14;19.20;87.70
20167;DHT22;10243;49.118;8.508;2022-07-06T03:07:18;19.20;87.90
20167;DHT22;10243;49.118;8.508;2022-07-06T03:10:20;19.10;88.10
20167;DHT22;10243;49.118;8.508;2022-07-06T03:13:22;19.30;87.80
20167;DHT22;10243;49.118;8.508;2022-07-06T03:16:25;19.30;87.50
20167;DHT22;10243;49.118;8.508;2022-07-06T03:19:27;19.50;86.80
20167;DHT22;10243;49.118;8.508;2022-07-06T03:22:32;19.60;86.30
20167;DHT22;10243;49.118;8.508;2022-07-06T03:25:35;19.60;86.50
20167;DHT22;10243;49.118;8.508;2022-07-06T03:28:37;19.70;86.70
20167;DHT22;10243;49.118;8.508;2022-07-06T03:31:39;19.80;86.10
20167;DHT22;10243;49.118;8.508;2022-07-06T03:34:42;19.70;85.50
20167;DHT22;10243;49.118;8.508;2022-07-06T03:37:46;19.70;86.20
20167;DHT22;10243;49.118;8.508;2022-07-06T03:40:49;19.80;86.10
20167;DHT22;10243;49.118;8.508;2022-07-06T03:43:51;19.60;85.80
20167;DHT22;10243;49.118;8.508;2022-07-06T03:46:53;19.70;86.60
20167;DHT22;10243;49.118;8.508;2022-07-06T03:49:57;19.80;86.10
20167;DHT22;10243;49.118;8.508;2022-07-06T03:53:01;19.90;87.50
20167;DHT22;10243;49.118;8.508;2022-07-06T03:56:03;19.60;86.90
20167;DHT22;10243;49.118;8.508;2022-07-06T03:59:23;19.50;87.40
20167;DHT22;10243;49.118;8.508;2022-07-06T04:02:25;19.50;87.90
20167;DHT22;10243;49.118;8.508;2022-07-06T04:05:27;19.60;87.60
20167;DHT22;10243;49.118;8.508;2022-07-06T04:08:31;19.50;88.30
20167;DHT22;10243;49.118;8.508;2022-07-06T04:11:33;19.50;87.80
20167;DHT22;10243;49.118;8.508;2022-07-06T04:14:36;19.50;87.10
20167;DHT22;10243;49.118;8.508;2022-07-06T04:17:39;19.50;87.40
20167;DHT22;10243;49.118;8.508;2022-07-06T04:21:07;19.30;87.10
20167;DHT22;10243;49.118;8.508;2022-07-06T04:24:12;19.20;87.30
20167;DHT22;10243;49.118;8.508;2022-07-06T04:27:14;19.20;87.30
20167;DHT22;10243;49.118;8.508;2022-07-06T04:30:18;19.10;87.90
20167;DHT22;10243;49.118;8.508;2022-07-06T04:33:20;19.20;87.50
20167;DHT22;10243;49.118;8.508;2022-07-06T04:36:23;19.00;87.50
20167;DHT22;10243;49.118;8.508;2022-07-06T04:39:27;19.00;88.30
20167;DHT22;10243;49.118;8.508;2022-07-06T04:42:31;18.90;88.30
20167;DHT22;10243;49.118;8.508;2022-07-06T04:45:34;19.00;88.00
20167;DHT22;10243;49.118;8.508;2022-07-06T04:48:36;19.20;87.40
20167;DHT22;10243;49.118;8.508;2022-07-06T04:51:40;19.20;87.60
20167;DHT22;10243;49.118;8.508;2022-07-06T04:54:44;19.30;87.30
20167;DHT22;10243;49.118;8.508;2022-07-06T04:57:47;19.30;87.70
20167;DHT22;10243;49.118;8.508;2022-07-06T05:00:52;19.40;87.70
20167;DHT22;10243;49.118;8.508;2022-07-06T05:03:55;19.30;87.20
20167;DHT22;10243;49.118;8.508;2022-07-06T05:06:59;19.30;87.60
20167;DHT22;10243;49.118;8.508;2022-07-06T05:10:03;19.30;87.60
20167;DHT22;10243;49.118;8.508;2022-07-06T05:13:07;19.30;88.10
20167;DHT22;10243;49.118;8.508;2022-07-06T05:16:09;19.40;86.90
20167;DHT22;10243;49.118;8.508;2022-07-06T05:19:12;19.30;87.70
20167;DHT22;10243;49.118;8.508;2022-07-06T05:22:14;19.40;87.90
20167;DHT22;10243;49.118;8.508;2022-07-06T05:25:17;19.60;87.50
20167;DHT22;10243;49.118;8.508;2022-07-06T05:28:19;19.70;87.10
20167;DHT22;10243;49.118;8.508;2022-07-06T05:31:21;19.60;87.10
20167;DHT22;10243;49.118;8.508;2022-07-06T05:34:23;19.60;86.70
20167;DHT22;10243;49.118;8.508;2022-07-06T05:37:25;19.60;87.20
20167;DHT22;10243;49.118;8.508;2022-07-06T05:40:29;19.80;86.60
20167;DHT22;10243;49.118;8.508;2022-07-06T05:43:32;19.70;86.80
20167;DHT22;10243;49.118;8.508;2022-07-06T05:46:35;19.50;86.70
20167;DHT22;10243;49.118;8.508;2022-07-06T05:49:37;19.60;87.00
20167;DHT22;10243;49.118;8.508;2022-07-06T05:52:57;19.70;85.90
20167;DHT22;10243;49.118;8.508;2022-07-06T05:56:03;19.80;86.20
20167;DHT22;10243;49.118;8.508;2022-07-06T05:59:06;19.90;85.60
20167;DHT22;10243;49.118;8.508;2022-07-06T06:02:09;19.90;85.90
20167;DHT22;10243;49.118;8.508;2022-07-06T06:05:13;20.00;85.40
20167;DHT22;10243;49.118;8.508;2022-07-06T06:08:16;20.10;86.00
20167;DHT22;10243;49.118;8.508;2022-07-06T06:11:20;20.10;84.80
20167;DHT22;10243;49.118;8.508;2022-07-06T06:14:22;20.10;85.40
20167;DHT22;10243;49.118;8.508;2022-07-06T06:17:24;20.00;85.00
20167;DHT22;10243;49.118;8.508;2022-07-06T06:20:26;20.20;85.80
20167;DHT22;10243;49.118;8.508;2022-07-06T06:23:28;20.10;85.00
20167;DHT22;10243;49.118;8.508;2022-07-06T06:26:32;20.00;85.70
20167;DHT22;10243;49.118;8.508;2022-07-06T06:29:34;20.10;85.10
20167;DHT22;10243;49.118;8.508;2022-07-06T06:32:36;20.10;84.60
20167;DHT22;10243;49.118;8.508;2022-07-06T06:35:41;20.10;85.90
20167;DHT22;10243;49.118;8.508;2022-07-06T06:38:43;20.00;86.40
20167;DHT22;10243;49.118;8.508;2022-07-06T06:41:46;20.20;85.40
20167;DHT22;10243;49.118;8.508;2022-07-06T06:44:48;20.30;86.60
20167;DHT22;10243;49.118;8.508;2022-07-06T06:47:50;20.40;85.10
20167;DHT22;10243;49.118;8.508;2022-07-06T06:50:52;20.30;84.60
20167;DHT22;10243;49.118;8.508;2022-07-06T06:53:54;20.30;84.60
20167;DHT22;10243;49.118;8.508;2022-07-06T06:56:57;20.30;85.30
20167;DHT22;10243;49.118;8.508;2022-07-06T06:59:59;20.20;84.30
20167;DHT22;10243;49.118;8.508;2022-07-06T07:03:01;20.00;85.00
20167;DHT22;10243;49.118;8.508;2022-07-06T07:06:03;20.10;85.60
20167;DHT22;10243;49.118;8.508;2022-07-06T07:09:05;20.20;84.90
20167;DHT22;10243;49.118;8.508;2022-07-06T07:12:09;20.20;85.80
20167;DHT22;10243;49.118;8.508;2022-07-06T07:15:12;20.30;85.40
20167;DHT22;10243;49.118;8.508;2022-07-06T07:18:15;20.40;85.30
20167;DHT22;10243;49.118;8.508;2022-07-06T07:21:16;20.60;85.20
20167;DHT22;10243;49.118;8.508;2022-07-06T07:24:18;20.40;84.40
20167;DHT22;10243;49.118;8.508;2022-07-06T07:27:22;20.50;85.90
20167;DHT22;10243;49.118;8.508;2022-07-06T07:30:24;20.50;84.40
20167;DHT22;10243;49.118;8.508;2022-07-06T07:33:26;20.50;84.00
20167;DHT22;10243;49.118;8.508;2022-07-06T07:36:28;20.30;84.40
20167;DHT22;10243;49.118;8.508;2022-07-06T07:39:30;20.40;85.50
20167;DHT22;10243;49.118;8.508;2022-07-06T07:42:33;20.40;84.50
20167;DHT22;10243;49.118;8.508;2022-07-06T07:45:35;20.60;84.90
20167;DHT22;10243;49.118;8.508;2022-07-06T07:48:37;20.80;84.10
20167;DHT22;10243;49.118;8.508;2022-07-06T07:51:39;20.80;83.90
20167;DHT22;10243;49.118;8.508;2022-07-06T07:54:42;20.90;84.20
20167;DHT22;10243;49.118;8.508;2022-07-06T07:57:45;21.00;83.80
20167;DHT22;10243;49.118;8.508;2022-07-06T08:00:47;21.10;83.00
20167;DHT22;10243;49.118;8.508;2022-07-06T08:03:49;21.10;83.60
20167;DHT22;10243;49.118;8.508;2022-07-06T08:06:51;21.00;82.50
20167;DHT22;10243;49.118;8.508;2022-07-06T08:09:53;21.10;82.70
20167;DHT22;10243;49.118;8.508;2022-07-06T08:12:56;21.20;82.80
20167;DHT22;10243;49.118;8.508;2022-07-06T08:15:58;21.10;82.50
20167;DHT22;10243;49.118;8.508;2022-07-06T08:19:00;21.10;82.10
20167;DHT22;10243;49.118;8.508;2022-07-06T08:22:03;21.00;82.10
20167;DHT22;10243;49.118;8.508;2022-07-06T08:25:08;21.10;83.00
20167;DHT22;10243;49.118;8.508;2022-07-06T08:28:11;21.20;81.50
20167;DHT22;10243;49.118;8.508;2022-07-06T08:31:13;21.10;82.60
20167;DHT22;10243;49.118;8.508;2022-07-06T08:34:15;21.20;82.10
20167;DHT22;10243;49.118;8.508;2022-07-06T08:37:17;21.40;81.80
20167;DHT22;10243;49.118;8.508;2022-07-06T08:40:19;21.40;82.40
20167;DHT22;10243;49.118;8.508;2022-07-06T08:43:23;21.60;82.90
20167;DHT22;10243;49.118;8.508;2022-07-06T08:46:26;21.90;82.70
20167;DHT22;10243;49.118;8.508;2022-07-06T08:49:29;21.90;80.80
20167;DHT22;10243;49.118;8.508;2022-07-06T08:52:33;21.90;80.30
20167;DHT22;10243;49.118;8.508;2022-07-06T08:55:35;21.70;81.10
20167;DHT22;10243;49.118;8.508;2022-07-06T08:58:39;21.80;80.10
20167;DHT22;10243;49.118;8.508;2022-07-06T09:01:42;21.70;80.50
20167;DHT22;10243;49.118;8.508;2022-07-06T09:04:46;21.80;80.70
20167;DHT22;10243;49.118;8.508;2022-07-06T09:07:50;21.70;81.20
20167;DHT22;10243;49.118;8.508;2022-07-06T09:10:52;21.50;80.50
20167;DHT22;10243;49.118;8.508;2022-07-06T09:13:55;21.50;80.30
20167;DHT22;10243;49.118;8.508;2022-07-06T09:17:02;21.70;81.20
20167;DHT22;10243;49.118;8.508;2022-07-06T09:20:07;21.80;80.60
20167;DHT22;10243;49.118;8.508;2022-07-06T09:23:09;22.00;79.40
20167;DHT22;10243;49.118;8.508;2022-07-06T09:26:11;22.20;79.60
20167;DHT22;10243;49.118;8.508;2022-07-06T09:29:15;22.10;79.00
20167;DHT22;10243;49.118;8.508;2022-07-06T09:32:20;22.00;79.10
20167;DHT22;10243;49.118;8.508;2022-07-06T09:35:23;22.20;78.00
20167;DHT22;10243;49.118;8.508;2022-07-06T09:38:26;22.30;79.40
20167;DHT22;10243;49.118;8.508;2022-07-06T09:41:32;22.40;78.20
20167;DHT22;10243;49.118;8.508;2022-07-06T09:44:36;22.40;77.20
20167;DHT22;10243;49.118;8.508;2022-07-06T09:47:39;22.20;78.20
20167;DHT22;10243;49.118;8.508;2022-07-06T09:50:44;22.20;77.90
20167;DHT22;10243;49.118;8.508;2022-07-06T09:53:51;22.20;77.30
20167;DHT22;10243;49.118;8.508;2022-07-06T09:56:55;22.20;77.70
20167;DHT22;10243;49.118;8.508;2022-07-06T09:59:58;22.50;78.50
20167;DHT22;10243;49.118;8.508;2022-07-06T10:03:00;22.70;76.70
20167;DHT22;10243;49.118;8.508;2022-07-06T10:06:02;22.70;77.30
20167;DHT22;10243;49.118;8.508;2022-07-06T10:09:06;22.50;75.50
20167;DHT22;10243;49.118;8.508;2022-07-06T10:12:10;22.70;76.60
20167;DHT22;10243;49.118;8.508;2022-07-06T10:15:16;22.70;74.80
20167;DHT22;10243;49.118;8.508;2022-07-06T10:18:19;22.60;75.50
20167;DHT22;10243;49.118;8.508;2022-07-06T10:21:21;22.90;75.20
20167;DHT22;10243;49.118;8.508;2022-07-06T10:24:24;22.80;74.60
20167;DHT22;10243;49.118;8.508;2022-07-06T10:27:26;22.90;75.10
20167;DHT22;10243;49.118;8.508;2022-07-06T10:30:30;22.80;75.20
20167;DHT22;10243;49.118;8.508;2022-07-06T10:33:33;23.20;75.10
20167;DHT22;10243;49.118;8.508;2022-07-06T10:36:39;23.30;74.60
20167;DHT22;10243;49.118;8.508;2022-07-06T10:39:48;23.50;74.80
20167;DHT22;10243;49.118;8.508;2022-07-06T10:43:09;23.50;73.90
20167;DHT22;10243;49.118;8.508;2022-07-06T10:46:14;23.70;73.60
20167;DHT22;10243;49.118;8.508;2022-07-06T10:49:17;23.40;73.30
20167;DHT22;10243;49.118;8.508;2022-07-06T10:52:19;23.50;75.30
20167;DHT22;10243;49.118;8.508;2022-07-06T10:55:29;23.70;73.50
20167;DHT22;10243;49.118;8.508;2022-07-06T10:58:41;23.30;73.70
20167;DHT22;10243;49.118;8.508;2022-07-06T11:02:13;23.50;73.40
20167;DHT22;10243;49.118;8.508;2022-07-06T11:05:39;23.60;72.80
20167;DHT22;10243;49.118;8.508;2022-07-06T11:08:56;23.50;73.40
20167;DHT22;10243;49.118;8.508;2022-07-06T11:11:58;23.80;72.30
20167;DHT22;10243;49.118;8.508;2022-07-06T11:15:00;23.80;73.10
20167;DHT22;10243;49.118;8.508;2022-07-06T11:18:19;24.10;73.30
20167;DHT22;10243;49.118;8.508;2022-07-06T11:21:22;24.40;75.40
20167;DHT22;10243;49.118;8.508;2022-07-06T11:24:26;24.60;71.30
20167;DHT22;10243;49.118;8.508;2022-07-06T11:27:29;24.20;71.90
20167;DHT22;10243;49.118;8.508;2022-07-06T11:30:31;23.80;72.10
20167;DHT22;10243;49.118;8.508;2022-07-06T11:33:35;23.90;73.50
20167;DHT22;10243;49.118;8.508;2022-07-06T11:36:38;23.90;72.00
20167;DHT22;10243;49.118;8.508;2022-07-06T11:39:42;24.00;73.40
20167;DHT22;10243;49.118;8.508;2022-07-06T11:42:53;23.90;72.30
20167;DHT22;10243;49.118;8.508;2022-07-06T11:45:55;24.10;70.80
20167;DHT22;10243;49.118;8.508;2022-07-06T11:48:59;24.20;72.10
20167;DHT22;10243;49.118;8.508;2022-07-06T11:52:05;24.20;71.40
20167;DHT22;10243;49.118;8.508;2022-07-06T11:55:08;23.80;72.00
20167;DHT22;10243;49.118;8.508;2022-07-06T11:58:10;23.50;72.70
20167;DHT22;10243;49.118;8.508;2022-07-06T12:01:14;23.40;73.70
20167;DHT22;10243;49.118;8.508;2022-07-06T12:04:17;23.80;72.60
20167;DHT22;10243;49.118;8.508;2022-07-06T12:07:19;23.80;70.70
20167;DHT22;10243;49.118;8.508;2022-07-06T12:10:31;23.80;72.50
20167;DHT22;10243;49.118;8.508;2022-07-06T12:13:36;23.70;71.00
20167;DHT22;10243;49.118;8.508;2022-07-06T12:16:40;24.00;72.00
20167;DHT22;10243;49.118;8.508;2022-07-06T12:19:44;24.10;70.50
20167;DHT22;10243;49.118;8.508;2022-07-06T12:22:46;24.20;70.30
20167;DHT22;10243;49.118;8.508;2022-07-06T12:25:54;24.30;70.20
20167;DHT22;10243;49.118;8.508;2022-07-06T12:29:00;24.80;73.40
20167;DHT22;10243;49.118;8.508;2022-07-06T12:32:02;24.70;69.80
20167;DHT22;10243;49.118;8.508;2022-07-06T12:35:10;24.60;69.60
20167;DHT22;10243;49.118;8.508;2022-07-06T12:38:12;24.60;69.10
20167;DHT22;10243;49.118;8.508;2022-07-06T12:41:32;24.70;70.20
20167;DHT22;10243;49.118;8.508;2022-07-06T12:44:42;24.70;69.90
20167;DHT22;10243;49.118;8.508;2022-07-06T12:47:57;24.80;71.30
20167;DHT22;10243;49.118;8.508;2022-07-06T12:51:01;24.90;69.80
20167;DHT22;10243;49.118;8.508;2022-07-06T12:54:12;24.80;67.80
20167;DHT22;10243;49.118;8.508;2022-07-06T12:57:16;24.30;69.30
20167;DHT22;10243;49.118;8.508;2022-07-06T13:00:18;24.20;69.70
20167;DHT22;10243;49.118;8.508;2022-07-06T13:03:22;24.20;69.50
20167;DHT22;10243;49.118;8.508;2022-07-06T13:06:29;24.20;69.20
20167;DHT22;10243;49.118;8.508;2022-07-06T13:09:32;24.40;68.90
20167;DHT22;10243;49.118;8.508;2022-07-06T13:12:34;24.50;68.00
20167;DHT22;10243;49.118;8.508;2022-07-06T13:15:36;24.40;68.80
20167;DHT22;10243;49.118;8.508;2022-07-06T13:18:38;24.60;68.10
20167;DHT22;10243;49.118;8.508;2022-07-06T13:21:41;24.50;67.50
20167;DHT22;10243;49.118;8.508;2022-07-06T13:24:45;24.20;68.10
20167;DHT22;10243;49.118;8.508;2022-07-06T13:27:47;24.10;68.50
20167;DHT22;10243;49.118;8.508;2022-07-06T13:30:49;24.20;68.70
20167;DHT22;10243;49.118;8.508;2022-07-06T13:33:51;24.20;66.20
20167;DHT22;10243;49.118;8.508;2022-07-06T13:36:54;24.50;66.80
20167;DHT22;10243;49.118;8.508;2022-07-06T13:39:56;24.70;65.30
20167;DHT22;10243;49.118;8.508;2022-07-06T13:42:58;24.90;65.40
20167;DHT22;10243;49.118;8.508;2022-07-06T13:46:00;25.00;64.70
20167;DHT22;10243;49.118;8.508;2022-07-06T13:49:02;25.00;64.90
20167;DHT22;10243;49.118;8.508;2022-07-06T13:52:06;25.10;64.60
20167;DHT22;10243;49.118;8.508;2022-07-06T13:55:08;25.20;64.60
20167;DHT22;10243;49.118;8.508;2022-07-06T13:58:11;25.00;64.40
20167;DHT22;10243;49.118;8.508;2022-07-06T14:01:13;25.10;65.00
20167;DHT22;10243;49.118;8.508;2022-07-06T14:04:15;25.00;64.60
20167;DHT22;10243;49.118;8.508;2022-07-06T14:07:18;25.20;63.30
20167;DHT22;10243;49.118;8.508;2022-07-06T14:10:20;25.40;63.20
20167;DHT22;10243;49.118;8.508;2022-07-06T14:13:23;25.60;62.00
20167;DHT22;10243;49.118;8.508;2022-07-06T14:16:24;25.60;63.40
20167;DHT22;10243;49.118;8.508;2022-07-06T14:19:26;25.60;63.70
20167;DHT22;10243;49.118;8.508;2022-07-06T14:22:30;25.50;64.10
20167;DHT22;10243;49.118;8.508;2022-07-06T14:25:32;25.50;62.00
20167;DHT22;10243;49.118;8.508;2022-07-06T14:28:34;25.60;62.70
20167;DHT22;10243;49.118;8.508;2022-07-06T14:31:36;25.80;61.70
20167;DHT22;10243;49.118;8.508;2022-07-06T14:34:38;25.60;61.60
20167;DHT22;10243;49.118;8.508;2022-07-06T14:37:42;25.50;61.60
20167;DHT22;10243;49.118;8.508;2022-07-06T14:40:44;25.40;61.80
20167;DHT22;10243;49.118;8.508;2022-07-06T14:46:48;25.40;61.30
20167;DHT22;10243;49.118;8.508;2022-07-06T14:49:50;25.50;62.20
20167;DHT22;10243;49.118;8.508;2022-07-06T14:52:55;25.30;62.50
20167;DHT22;10243;49.118;8.508;2022-07-06T14:55:57;25.30;61.70
20167;DHT22;10243;49.118;8.508;2022-07-06T14:58:58;25.30;61.80
20167;DHT22;10243;49.118;8.508;2022-07-06T15:02:00;25.40;61.40
20167;DHT22;10243;49.118;8.508;2022-07-06T15:05:03;25.20;61.40
20167;DHT22;10243;49.118;8.508;2022-07-06T15:08:07;25.20;61.50
20167;DHT22;10243;49.118;8.508;2022-07-06T15:11:09;25.10;59.60
20167;DHT22;10243;49.118;8.508;2022-07-06T15:14:11;25.10;60.50
20167;DHT22;10243;49.118;8.508;2022-07-06T15:17:13;24.90;60.20
20167;DHT22;10243;49.118;8.508;2022-07-06T15:20:15;25.00;60.90
20167;DHT22;10243;49.118;8.508;2022-07-06T15:23:19;25.20;60.70
20167;DHT22;10243;49.118;8.508;2022-07-06T15:26:21;25.10;60.40
20167;DHT22;10243;49.118;8.508;2022-07-06T15:29:25;24.90;59.60
20167;DHT22;10243;49.118;8.508;2022-07-06T15:32:27;24.90;59.20
20167;DHT22;10243;49.118;8.508;2022-07-06T15:35:29;24.90;60.60
20167;DHT22;10243;49.118;8.508;2022-07-06T15:38:32;24.80;60.40
20167;DHT22;10243;49.118;8.508;2022-07-06T15:41:35;24.90;59.70
20167;DHT22;10243;49.118;8.508;2022-07-06T15:44:37;25.00;60.20
20167;DHT22;10243;49.118;8.508;2022-07-06T15:47:39;25.00;59.90
20167;DHT22;10243;49.118;8.508;2022-07-06T15:50:41;24.90;60.10
20167;DHT22;10243;49.118;8.508;2022-07-06T15:53:45;24.90;61.00
20167;DHT22;10243;49.118;8.508;2022-07-06T15:56:47;24.70;60.40
20167;DHT22;10243;49.118;8.508;2022-07-06T15:59:49;24.70;60.40
20167;DHT22;10243;49.118;8.508;2022-07-06T16:02:51;24.90;60.80
20167;DHT22;10243;49.118;8.508;2022-07-06T16:05:53;25.20;59.30
20167;DHT22;10243;49.118;8.508;2022-07-06T16:08:56;25.40;59.70
20167;DHT22;10243;49.118;8.508;2022-07-06T16:11:58;25.00;59.00
20167;DHT22;10243;49.118;8.508;2022-07-06T16:15:00;24.90;60.60
20167;DHT22;10243;49.118;8.508;2022-07-06T16:18:02;24.70;60.80
20167;DHT22;10243;49.118;8.508;2022-07-06T16:21:04;24.80;61.30
20167;DHT22;10243;49.118;8.508;2022-07-06T16:24:08;24.90;61.30
20167;DHT22;10243;49.118;8.508;2022-07-06T16:27:10;25.00;61.80
20167;DHT22;10243;49.118;8.508;2022-07-06T16:30:12;24.90;62.00
20167;DHT22;10243;49.118;8.508;2022-07-06T16:33:15;24.80;62.00
20167;DHT22;10243;49.118;8.508;2022-07-06T16:36:17;24.80;61.60
20167;DHT22;10243;49.118;8.508;2022-07-06T16:39:20;24.60;61.60
20167;DHT22;10243;49.118;8.508;2022-07-06T16:42:22;24.50;61.10
20167;DHT22;10243;49.118;8.508;2022-07-06T16:45:24;24.40;62.10
20167;DHT22;10243;49.118;8.508;2022-07-06T16:48:26;24.50;61.90
20167;DHT22;10243;49.118;8.508;2022-07-06T16:51:29;24.20;62.10
20167;DHT22;10243;49.118;8.508;2022-07-06T16:54:32;24.00;62.90
20167;DHT22;10243;49.118;8.508;2022-07-06T16:57:35;24.20;62.40
20167;DHT22;10243;49.118;8.508;2022-07-06T17:00:37;24.40;61.30
20167;DHT22;10243;49.118;8.508;2022-07-06T17:03:39;24.60;61.80
20167;DHT22;10243;49.118;8.508;2022-07-06T17:06:41;24.50;61.60
20167;DHT22;10243;49.118;8.508;2022-07-06T17:09:44;24.20;62.60
20167;DHT22;10243;49.118;8.508;2022-07-06T17:12:47;24.10;62.50
20167;DHT22;10243;49.118;8.508;2022-07-06T17:15:49;24.40;63.40
20167;DHT22;10243;49.118;8.508;2022-07-06T17:18:51;24.20;63.70
20167;DHT22;10243;49.118;8.508;2022-07-06T17:21:53;23.80;64.60
20167;DHT22;10243;49.118;8.508;2022-07-06T17:24:57;24.10;65.40
20167;DHT22;10243;49.118;8.508;2022-07-06T17:28:00;24.20;64.60
20167;DHT22;10243;49.118;8.508;2022-07-06T17:31:02;24.20;64.30
20167;DHT22;10243;49.118;8.508;2022-07-06T17:34:04;24.20;64.80
20167;DHT22;10243;49.118;8.508;2022-07-06T17:37:07;25.00;63.30
20167;DHT22;10243;49.118;8.508;2022-07-06T17:40:12;25.00;62.60
20167;DHT22;10243;49.118;8.508;2022-07-06T17:43:14;24.10;64.50
20167;DHT22;10243;49.118;8.508;2022-07-06T17:46:16;23.50;64.90
20167;DHT22;10243;49.118;8.508;2022-07-06T17:49:18;23.30;65.70
20167;DHT22;10243;49.118;8.508;2022-07-06T17:52:20;23.10;66.40
20167;DHT22;10243;49.118;8.508;2022-07-06T17:55:24;23.50;65.70
20167;DHT22;10243;49.118;8.508;2022-07-06T17:58:25;24.50;63.40
20167;DHT22;10243;49.118;8.508;2022-07-06T18:01:28;25.10;62.50
20167;DHT22;10243;49.118;8.508;2022-07-06T18:04:30;25.80;61.90
20167;DHT22;10243;49.118;8.508;2022-07-06T18:07:32;26.20;61.20
20167;DHT22;10243;49.118;8.508;2022-07-06T18:10:35;27.70;59.60
20167;DHT22;10243;49.118;8.508;2022-07-06T18:13:37;28.40;57.80
20167;DHT22;10243;49.118;8.508;2022-07-06T18:16:39;27.60;58.20
20167;DHT22;10243;49.118;8.508;2022-07-06T18:19:41;26.90;59.50
20167;DHT22;10243;49.118;8.508;2022-07-06T18:22:43;26.20;59.60
20167;DHT22;10243;49.118;8.508;2022-07-06T18:25:47;25.50;61.10
20167;DHT22;10243;49.118;8.508;2022-07-06T18:28:50;25.00;62.30
20167;DHT22;10243;49.118;8.508;2022-07-06T18:31:52;24.30;64.10
20167;DHT22;10243;49.118;8.508;2022-07-06T18:34:54;24.00;64.00
20167;DHT22;10243;49.118;8.508;2022-07-06T18:37:56;23.90;64.80
20167;DHT22;10243;49.118;8.508;2022-07-06T18:40:59;23.70;64.50
20167;DHT22;10243;49.118;8.508;2022-07-06T18:44:01;23.40;64.70
20167;DHT22;10243;49.118;8.508;2022-07-06T18:47:04;23.30;65.70
20167;DHT22;10243;49.118;8.508;2022-07-06T18:50:06;23.30;64.90
20167;DHT22;10243;49.118;8.508;2022-07-06T18:53:08;23.10;65.80
20167;DHT22;10243;49.118;8.508;2022-07-06T18:56:12;22.80;67.30
20167;DHT22;10243;49.118;8.508;2022-07-06T18:59:14;22.70;66.90
20167;DHT22;10243;49.118;8.508;2022-07-06T19:02:16;22.50;67.60
20167;DHT22;10243;49.118;8.508;2022-07-06T19:05:20;22.40;67.80
20167;DHT22;10243;49.118;8.508;2022-07-06T19:08:22;22.30;67.80
20167;DHT22;10243;49.118;8.508;2022-07-06T19:11:25;22.30;67.90
20167;DHT22;10243;49.118;8.508;2022-07-06T19:14:27;22.30;68.00
20167;DHT22;10243;49.118;8.508;2022-07-06T19:17:29;22.00;68.30
20167;DHT22;10243;49.118;8.508;2022-07-06T19:20:31;22.00;68.50